Latest Weather Observations for Bega

IDN60801

Issued at 3:32 pm EDT Monday 23 January 2017 (issued every 30 minutes, with the page automatically refreshed every 10 minutes)

About weather observations | Map of weather stations | Latest weather observations for NSW | Other Formats
Station Details ID: 069139 Name: BEGA AWS Lat: -36.67 Lon: 149.82 Height: 41.0 m
Data from the previous 72 hours. | See also: Recent months at Bega
Date/Time
EDT
Temp
°C
App
Temp
°C
Dew
Point
°C
Rel
Hum
%
Delta-T
°C
Wind Press
QNH
hPa
Press
MSL
hPa
Rain since
9am
mm
Dir  Spd
km/h
Gust
km/h
Spd
kts
Gust
kts
23/03:30pm 35.8 34.2 19.3 38 11.0 ENE 26 32 14 17 1004.3 1004.1 0.0
23/03:00pm 34.4 32.8 18.4 38 10.5 NE 24 32 13 17 1004.7 1004.6 0.0
23/02:30pm 36.1 34.1 18.2 34 11.7 NE 26 33 14 18 1004.8 1004.7 0.0
23/02:00pm 35.6 34.5 17.8 35 11.6 ENE 20 28 11 15 1005.3 1005.2 0.0
23/01:30pm 35.9 36.8 19.3 37 11.0 ESE 13 20 7 11 1006.0 1005.9 0.0
23/01:00pm 34.2 34.1 17.8 37 10.6 E 15 20 8 11 1006.6 1006.5 0.0
23/12:30pm 34.1 33.8 17.3 36 10.8 E 15 20 8 11 1007.2 1007.1 0.0
23/12:00pm 32.7 33.3 16.9 38 10.1 E 9 13 5 7 1008.0 1007.9 0.0
23/11:30am 30.8 31.2 16.4 42 9.0 ESE 9 13 5 7 1008.3 1008.2 0.0
23/11:00am 30.9 31.2 17.9 45 8.3 NNE 13 19 7 10 1008.7 1008.6 0.0
23/10:30am 28.9 28.9 17.1 49 7.4 ENE 13 17 7 9 1009.3 1009.2 0.0
23/10:00am 27.2 26.5 17.4 55 6.2 NNE 17 22 9 12 1009.8 1009.7 0.0
23/09:30am 25.7 26.3 16.8 58 5.5 ENE 9 13 5 7 1010.3 1010.2 0.0
23/09:00am 23.9 24.5 16.7 64 4.4 NE 9 13 5 7 1010.7 1010.6 0.0
23/08:30am 21.5 22.3 15.8 70 3.4 ESE 6 7 3 4 1011.2 1011.1 0.0
23/08:00am 18.9 19.3 15.2 79 2.2 SSE 7 9 4 5 1011.5 1011.4 0.0
23/07:30am 16.4 18.1 15.1 92 0.8 CALM 0 0 0 0 1011.5 1011.4 0.0
23/07:00am 15.6 15.6 14.3 92 0.7 S 7 9 4 5 1011.6 1011.5 0.0
23/06:30am 15.8 17.2 14.5 92 0.7 CALM 0 0 0 0 1011.5 1011.4 0.0
23/06:00am 15.7 17.1 14.4 92 0.7 CALM 0 0 0 0 1011.6 1011.5 0.0
23/05:30am 15.8 17.2 14.5 92 0.7 CALM 0 0 0 0 1011.8 1011.7 0.0
23/05:00am 15.6 15.7 14.5 93 0.6 SW 7 9 4 5 1011.7 1011.6 0.0
23/04:30am 15.7 15.7 14.2 91 0.9 SSW 7 9 4 5 1011.7 1011.6 0.0
23/04:00am 16.0 15.7 14.4 90 0.9 SSW 9 9 5 5 1011.9 1011.8 0.0
23/03:30am 16.9 17.1 14.7 87 1.3 S 7 11 4 6 1012.0 1011.9 0.0
23/03:00am 18.3 18.9 15.4 83 1.7 SSW 6 9 3 5 1012.3 1012.2 0.0
23/02:30am 20.1 20.6 16.5 80 2.2 NNW 9 15 5 8 1012.7 1012.6 0.0
23/02:00am 19.2 20.1 16.2 83 1.8 WNW 6 13 3 7 1013.1 1013.0 0.0
23/01:30am 18.9 20.4 15.6 81 2.0 SE 2 7 1 4 1013.4 1013.3 0.0
23/01:00am 19.2 21.1 15.7 80 2.1 CALM 0 6 0 3 1013.9 1013.8 0.0
23/12:30am 19.3 20.8 15.6 79 2.2 NNE 2 6 1 3 1014.3 1014.2 0.0
23/12:00am 19.9 21.4 15.7 77 2.5 NNE 2 6 1 3 1014.7 1014.6 0.0
 
Date/Time
EDT
Temp
°C
App
Temp
°C
Dew
Point
°C
Rel
Hum
%
Delta-T
°C
Wind Press
QNH
hPa
Press
MSL
hPa
Rain since
9am
mm
Dir  Spd
km/h
Gust
km/h
Spd
kts
Gust
kts
22/11:30pm 20.2 20.9 16.0 77 2.5 N 7 11 4 6 1014.8 1014.7 0.0
22/11:00pm 19.9 20.4 15.5 76 2.6 N 7 9 4 5 1015.1 1015.0 0.0
22/10:30pm 19.3 19.3 15.2 77 2.4 N 9 13 5 7 1015.2 1015.1 0.0
22/10:00pm 19.5 19.9 15.4 77 2.4 N 7 9 4 5 1015.2 1015.1 0.0
22/09:30pm 20.0 20.1 15.6 76 2.6 NNE 9 13 5 7 1015.2 1015.1 0.0
22/09:00pm 20.7 20.6 16.1 75 2.8 NE 11 15 6 8 1015.1 1015.0 0.0
22/08:30pm 21.1 19.5 15.9 72 3.1 NE 19 26 10 14 1014.9 1014.8 0.0
22/08:00pm 21.6 19.7 15.7 69 3.5 NE 20 30 11 16 1014.7 1014.6 0.0
22/07:30pm 22.1 19.5 15.0 64 4.2 NE 22 30 12 16 1014.3 1014.2 0.0
22/07:00pm 22.6 19.3 15.0 62 4.5 NE 26 33 14 18 1013.9 1013.8 0.0
22/06:30pm 23.3 20.4 15.1 60 4.9 NE 24 35 13 19 1013.7 1013.6 0.0
22/06:00pm 23.5 19.7 14.8 58 5.2 NE 28 39 15 21 1013.3 1013.2 0.0
22/05:30pm 24.1 20.5 14.2 54 5.8 NE 26 37 14 20 1013.5 1013.4 0.0
22/05:00pm 25.0 22.3 14.5 52 6.3 NE 22 33 12 18 1013.6 1013.5 0.0
22/04:30pm 25.5 22.0 14.6 51 6.5 NE 26 37 14 20 1013.7 1013.6 0.0
22/04:00pm 25.4 21.0 14.2 50 6.6 NE 30 37 16 20 1013.6 1013.5 0.0
22/03:30pm 27.2 24.2 14.9 47 7.4 E 24 37 13 20 1013.8 1013.7 0.0
22/03:00pm 27.3 24.4 15.0 47 7.5 ENE 24 37 13 20 1013.9 1013.8 0.0
22/02:30pm 26.9 23.6 14.0 45 7.7 E 24 32 13 17 1013.9 1013.8 0.0
22/02:00pm 26.5 23.6 13.9 45 7.5 E 22 32 12 17 1014.2 1014.1 0.0
22/01:30pm 27.1 24.7 14.5 46 7.6 ENE 20 30 11 16 1014.5 1014.4 0.0
22/01:00pm 26.4 23.9 14.2 47 7.3 ENE 20 28 11 15 1014.8 1014.7 0.0
22/12:30pm 26.1 23.4 13.6 46 7.4 ESE 20 30 11 16 1015.2 1015.1 0.0
22/12:00pm 25.9 23.4 14.1 48 7.0 SE 20 30 11 16 1015.7 1015.5 0.0
22/11:30am 25.3 24.3 12.2 44 7.5 ESE 9 17 5 9 1016.0 1015.8 0.0
22/11:00am 24.5 22.5 11.5 44 7.3 NE 13 20 7 11 1016.3 1016.1 0.0
22/10:30am 23.6 21.4 12.0 48 6.6 NE 15 22 8 12 1016.5 1016.3 0.0
22/10:00am 22.9 22.0 12.5 52 5.9 NNE 9 17 5 9 1017.0 1016.8 0.0
22/09:30am 21.4 20.5 12.5 57 5.0 ENE 9 13 5 7 1017.5 1017.3 0.0
22/09:00am 19.8 19.2 11.6 59 4.5 E 6 9 3 5 1017.8 1017.6 0.0
22/08:30am 18.6 17.9 11.9 65 3.7 ENE 7 9 4 5 1018.0 1017.8 0.0
22/08:00am 16.4 15.8 11.8 74 2.5 NE 6 7 3 4 1017.9 1017.7 0.0
22/07:30am 14.6 14.7 10.2 75 2.3 CALM 0 0 0 0 1017.8 1017.6 0.0
22/07:00am 14.1 14.4 10.9 81 1.7 CALM 0 0 0 0 1017.7 1017.5 0.0
22/06:30am 12.7 13.0 10.8 88 1.0 CALM 0 0 0 0 1017.6 1017.4 0.0
22/06:00am 12.5 12.7 10.6 88 1.0 CALM 0 0 0 0 1017.4 1017.2 0.0
22/05:30am 12.7 12.8 10.1 84 1.3 CALM 0 0 0 0 1017.0 1016.8 0.0
22/05:00am 13.2 13.3 10.2 82 1.6 CALM 0 0 0 0 1016.8 1016.6 0.0
22/04:30am 13.2 12.3 10.7 85 1.3 SSW 6 6 3 3 1016.6 1016.4 0.0
22/04:00am 13.1 12.1 10.3 83 1.5 S 6 7 3 4 1016.5 1016.3 0.0
22/03:30am 13.5 13.7 10.7 83 1.5 CALM 0 0 0 0 1016.5 1016.3 0.0
22/03:00am 13.8 14.0 10.6 81 1.7 CALM 0 0 0 0 1016.7 1016.5 0.0
22/02:30am 14.1 14.3 10.7 80 1.8 CALM 0 0 0 0 1016.9 1016.7 0.0
22/02:00am 14.3 14.5 10.5 78 2.0 CALM 0 0 0 0 1016.9 1016.7 0.0
22/01:30am 14.8 14.5 10.2 74 2.4 NNW 2 7 1 4 1017.0 1016.8 0.0
22/01:00am 15.2 14.2 10.4 73 2.5 NNE 6 7 3 4 1017.1 1016.9 0.0
22/12:30am 15.7 14.5 10.2 70 2.9 NNE 7 11 4 6 1017.1 1016.9 0.0
22/12:00am 15.5 13.9 10.1 70 2.8 NNE 9 11 5 6 1017.1 1016.9 0.0
 
Date/Time
EDT
Temp
°C
App
Temp
°C
Dew
Point
°C
Rel
Hum
%
Delta-T
°C
Wind Press
QNH
hPa
Press
MSL
hPa
Rain since
9am
mm
Dir  Spd
km/h
Gust
km/h
Spd
kts
Gust
kts
21/11:30pm 16.3 15.2 10.8 70 2.9 NNE 7 11 4 6 1017.0 1016.8 0.0
21/11:00pm 17.1 15.3 10.9 67 3.3 NE 11 13 6 7 1016.9 1016.7 0.0
21/10:30pm 17.4 15.1 10.5 64 3.7 NNE 13 17 7 9 1016.9 1016.7 0.0
21/10:00pm 18.1 15.8 10.5 61 4.1 NE 13 19 7 10 1016.7 1016.5 0.0
21/09:30pm 18.5 15.3 9.8 57 4.6 ENE 17 22 9 12 1016.3 1016.1 0.0
21/09:00pm 19.1 16.5 9.3 53 5.2 ENE 13 20 7 11 1015.7 1015.5 0.0
21/08:30pm 19.9 16.9 9.2 50 5.7 NE 15 22 8 12 1015.1 1015.0 0.0
21/08:00pm 21.0 17.3 9.3 47 6.2 NE 19 24 10 13 1014.4 1014.3 0.0
21/07:30pm 21.9 19.0 11.0 50 6.0 NE 17 26 9 14 1014.0 1013.9 0.0
21/07:00pm 22.7 19.4 10.8 47 6.6 NE 19 24 10 13 1013.4 1013.3 0.0
21/06:30pm 23.2 19.6 11.9 49 6.4 NE 22 26 12 14 1012.9 1012.8 0.0
21/06:00pm 23.6 20.3 11.6 47 6.8 ENE 20 28 11 15 1012.5 1012.4 0.0
21/05:30pm 24.3 20.9 11.3 44 7.3 ENE 20 32 11 17 1012.3 1012.2 0.0
21/05:00pm 24.9 20.9 10.4 40 8.1 E 22 30 12 16 1012.1 1012.0 0.0
21/04:30pm 25.3 21.6 10.0 38 8.5 E 20 30 11 16 1012.0 1011.9 0.0
21/04:00pm 25.2 20.8 9.1 36 8.8 E 22 32 12 17 1011.8 1011.7 0.0
21/03:30pm 26.0 21.7 9.4 35 9.1 E 22 30 12 16 1011.5 1011.4 0.0
21/03:00pm 25.0 19.8 10.1 39 8.2 E 28 39 15 21 1011.3 1011.2 0.0
21/02:30pm 25.2 19.7 9.1 36 8.8 E 28 37 15 20 1011.1 1011.0 0.0
21/02:00pm 26.5 22.0 10.2 36 9.1 E 24 35 13 19 1011.1 1011.0 0.0
21/01:30pm 27.0 23.1 9.4 33 9.7 E 20 28 11 15 1011.2 1011.1 0.0
21/01:00pm 26.5 22.8 9.4 34 9.4 ESE 19 30 10 16 1011.1 1011.0 0.0
21/12:30pm 26.1 22.7 9.0 34 9.3 SSW 17 30 9 16 1011.4 1011.3 0.0
21/12:00pm 24.2 19.8 6.5 32 9.2 S 19 30 10 16 1011.3 1011.2 0.0
21/11:30am 23.7 20.0 7.8 36 8.4 S 17 30 9 16 1011.6 1011.5 0.0
21/11:00am 23.0 19.6 7.5 37 8.1 SSE 15 22 8 12 1011.6 1011.5 0.0
21/10:30am 21.3 16.4 6.8 39 7.4 SSW 22 30 12 16 1011.5 1011.4 0.0
21/10:00am 20.6 15.4 7.2 42 6.9 SSW 24 37 13 20 1011.5 1011.4 0.0
21/09:30am 19.4 12.5 6.5 43 6.5 SW 32 41 17 22 1011.4 1011.3 0.0
21/09:00am 18.9 12.1 7.0 46 6.0 SW 32 39 17 21 1011.3 1011.2 0.2
21/08:30am 18.5 12.6 7.3 48 5.7 SW 28 43 15 23 1011.1 1011.0 0.2
21/08:00am 17.9 11.1 7.0 49 5.5 SW 32 46 17 25 1010.8 1010.7 0.2
21/07:30am 17.8 13.0 7.2 50 5.3 SW 22 41 12 22 1010.4 1010.3 0.2
21/07:00am 17.2 14.2 7.8 54 4.8 SW 13 24 7 13 1009.8 1009.7 0.2
21/06:30am 17.5 10.9 7.8 53 4.9 WSW 32 43 17 23 1009.0 1008.9 0.2
21/06:00am 17.5 12.5 8.1 54 4.8 WSW 24 35 13 19 1008.4 1008.3 0.2
21/05:30am 17.8 13.2 8.1 53 5.0 WSW 22 33 12 18 1008.0 1007.9 0.2
21/05:00am 17.7 14.1 8.3 54 4.8 WSW 17 28 9 15 1007.4 1007.3 0.2
21/04:30am 17.6 14.3 7.9 53 4.9 WSW 15 24 8 13 1006.8 1006.7 0.2
21/04:00am 17.6 14.0 8.2 54 4.8 WSW 17 28 9 15 1006.0 1005.9 0.2
21/03:30am 17.7 14.1 8.3 54 4.8 WSW 17 26 9 14 1005.6 1005.5 0.2
21/03:00am 18.0 14.4 8.3 53 5.0 W 17 22 9 12 1005.4 1005.3 0.2
21/02:30am 18.1 14.6 8.7 54 4.9 WSW 17 24 9 13 1005.3 1005.2 0.2
21/02:00am 17.3 15.7 8.7 57 4.5 SW 7 13 4 7 1005.3 1005.2 0.2
21/01:30am 17.5 16.3 8.1 54 4.8 NW 4 7 2 4 1004.9 1004.8 0.2
21/01:00am 17.9 15.8 8.2 53 5.0 SW 9 20 5 11 1004.6 1004.5 0.2
21/12:30am 18.9 13.2 8.3 50 5.5 SW 28 41 15 22 1004.4 1004.2 0.2
21/12:17am 19.3 13.7 8.6 50 5.6 SW 28 43 15 23 1004.1 1003.9 0.2
21/12:00am 18.3 15.0 9.4 56 4.7 SW 17 24 9 13 1004.0 1003.8 0.2
 
Date/Time
EDT
Temp
°C
App
Temp
°C
Dew
Point
°C
Rel
Hum
%
Delta-T
°C
Wind Press
QNH
hPa
Press
MSL
hPa
Rain since
9am
mm
Dir  Spd
km/h
Gust
km/h
Spd
kts
Gust
kts
20/11:30pm 19.5 15.6 9.4 52 5.4 SSW 20 32 11 17 1003.9 1003.7 0.2
20/11:00pm 20.1 15.4 9.1 49 5.8 SSW 24 37 13 20 1003.4 1003.2 0.2
20/10:34pm 20.8 15.3 9.1 47 6.2 SW 28 46 15 25 1002.9 1002.7 0.2
20/10:30pm 20.8 16.4 9.1 47 6.2 SW 22 35 12 19 1002.8 1002.6 0.2
20/10:00pm 21.1 16.8 9.4 47 6.3 SW 22 41 12 22 1002.3 1002.1 0.2
20/09:35pm 21.4 15.2 9.3 46 6.5 SW 32 50 17 27 1001.7 1001.5 0.2
20/09:30pm 21.3 15.1 9.2 46 6.5 SW 32 44 17 24 1001.5 1001.3 0.2
20/09:00pm 21.7 15.4 8.9 44 6.8 SW 32 50 17 27 1000.7 1000.5 0.2
20/08:30pm 21.8 13.7 8.7 43 6.9 WSW 41 74 22 40 999.9 999.7 0.2
20/08:09pm 22.0 15.4 8.5 42 7.1 SW 33 74 18 40 999.0 998.8 0.2
20/08:06pm 21.9 16.3 8.8 43 7.0 SW 28 48 15 26 998.9 998.7 0.2
20/08:00pm 22.0 16.8 8.9 43 7.0 SW 26 43 14 23 998.8 998.6 0.2
20/07:30pm 23.0 13.2 8.7 40 7.6 SW 50 83 27 45 997.1 996.9 0.2
20/07:05pm 24.6 15.3 9.3 38 8.3 SW 48 69 26 37 995.5 995.3 0.2
20/07:00pm 25.0 16.3 10.1 39 8.3 SW 46 65 25 35 995.4 995.2 0.2
20/06:49pm 25.5 19.0 10.5 39 8.4 SW 35 72 19 39 994.6 994.4 0.2
20/06:30pm 26.3 20.8 12.4 42 8.0 SW 33 54 18 29 994.0 993.8 0.2
20/06:09pm 26.9 24.7 15.0 48 7.2 SW 20 57 11 31 993.2 993.0 0.2
20/06:08pm 26.9 25.4 15.3 49 7.1 SSW 17 43 9 23 993.2 993.0 0.2
20/06:00pm 25.5 26.3 17.4 61 5.1 SE 9 15 5 8 992.9 992.7 0.2
20/05:30pm 26.6 28.4 18.7 62 5.1 NE 7 20 4 11 992.5 992.3 0.2
20/05:00pm 25.2 26.0 18.2 65 4.5 S 11 15 6 8 992.3 992.1 0.2
20/04:30pm 24.1 25.0 18.5 71 3.5 SE 11 15 6 8 992.1 991.9 0.2
20/04:00pm 24.3 23.6 18.7 71 3.6 E 20 28 11 15 991.8 991.6 0.2

Other Formats:

Comma delimited format used in spreadsheet applications
http://www.bom.gov.au/fwo/IDN60801/IDN60801.95931.axf

JavaScript Object Notation format (JSON) in row-major order
http://www.bom.gov.au/fwo/IDN60801/IDN60801.95931.json